Time;durP1;ratioP1;P1;durP2;ratioP2;P2;SDS_P1;SDS_P2;PMS_P1;PMS_P2;Temp;Humidity;BMP_temperature;BMP_pressure;BME280_temperature;BME280_humidity;BME280_pressure;Samples;Min_cycle;Max_cycle;Signal;HPM_P1;HPM_P2
2023/03/25 00:02:15;;;;;;;2.03;1.83;;;;;;;;;;5016474;28;20488;-64
2023/03/25 00:04:43;;;;;;;2.03;1.80;;;;;;;;;;5016347;28;20459;-63
2023/03/25 00:07:11;;;;;;;4.20;1.57;;;;;;;;;;5016238;28;20843;-64
2023/03/25 00:09:38;;;;;;;3.17;1.50;;;;;;;;;;5016177;28;20501;-63
2023/03/25 00:12:05;;;;;;;3.13;1.73;;;;;;;;;;5016206;28;20857;-63
2023/03/25 00:14:32;;;;;;;5.67;1.70;;;;;;;;;;5016283;28;20884;-64
2023/03/25 00:17:00;;;;;;;1.70;1.40;;;;;;;;;;5016155;28;20455;-63
2023/03/25 00:19:27;;;;;;;2.17;1.87;;;;;;;;;;5016058;28;20556;-63
2023/03/25 00:21:55;;;;;;;1.50;1.40;;;;;;;;;;5016040;28;20450;-64
2023/03/25 00:24:22;;;;;;;1.37;1.27;;;;;;;;;;5015944;28;20536;-63
2023/03/25 00:26:49;;;;;;;1.53;1.20;;;;;;;;;;5015753;28;20482;-63
2023/03/25 00:29:16;;;;;;;1.80;1.40;;;;;;;;;;5015871;28;20497;-63
2023/03/25 00:31:43;;;;;;;1.40;1.30;;;;;;;;;;5016056;28;20486;-64
2023/03/25 00:34:13;;;;;;;2.40;1.70;;;;;;;;;;5015773;28;20451;-64
2023/03/25 00:36:40;;;;;;;2.50;1.47;;;;;;;;;;5015631;28;20454;-64
2023/03/25 00:39:08;;;;;;;3.30;1.30;;;;;;;;;;5015531;28;20517;-62
2023/03/25 00:41:36;;;;;;;1.20;1.10;;;;;;;;;;5015787;28;20458;-63
2023/03/25 00:44:03;;;;;;;1.43;1.23;;;;;;;;;;5015530;28;20445;-63
2023/03/25 00:46:31;;;;;;;1.40;1.10;;;;;;;;;;5015581;28;20482;-63
2023/03/25 00:48:59;;;;;;;1.73;1.60;;;;;;;;;;5015462;28;20504;-64
2023/03/25 00:51:27;;;;;;;1.60;1.30;;;;;;;;;;5015725;28;20455;-63
2023/03/25 00:53:55;;;;;;;1.20;1.10;;;;;;;;;;5015360;28;20453;-63
2023/03/25 00:56:24;;;;;;;1.30;1.20;;;;;;;;;;5015501;28;20554;-63
2023/03/25 00:58:51;;;;;;;4.23;1.30;;;;;;;;;;5015601;28;20790;-63
2023/03/25 01:01:22;;;;;;;1.90;1.23;;;;;;;;;;5015348;28;20453;-63
2023/03/25 01:03:56;;;;;;;3.93;1.70;;;;;;;;;;5015234;28;20454;-63
2023/03/25 01:06:23;;;;;;;1.20;1.07;;;;;;;;;;5015033;28;20481;-63
2023/03/25 01:08:52;;;;;;;2.40;1.23;;;;;;;;;;5015064;28;20493;-64
2023/03/25 01:11:21;;;;;;;1.97;1.40;;;;;;;;;;5015165;28;20541;-63
2023/03/25 01:13:50;;;;;;;1.17;1.07;;;;;;;;;;5015121;28;20461;-63
2023/03/25 01:16:17;;;;;;;1.20;1.10;;;;;;;;;;5015002;28;20490;-63
2023/03/25 01:18:43;;;;;;;2.23;1.10;;;;;;;;;;5014976;28;20454;-63
2023/03/25 01:21:10;;;;;;;1.10;0.87;;;;;;;;;;5014819;28;20482;-63
2023/03/25 01:23:37;;;;;;;3.83;1.33;;;;;;;;;;5014851;28;20541;-64
2023/03/25 01:26:04;;;;;;;1.80;1.10;;;;;;;;;;5014817;28;20457;-63
2023/03/25 01:28:31;;;;;;;2.00;1.10;;;;;;;;;;5014841;28;20537;-63
2023/03/25 01:31:02;;;;;;;2.70;1.37;;;;;;;;;;5014843;28;20537;-64
2023/03/25 01:33:29;;;;;;;1.90;1.13;;;;;;;;;;5014567;28;20454;-64
2023/03/25 01:35:56;;;;;;;3.47;1.20;;;;;;;;;;5014921;28;20450;-64
2023/03/25 01:38:23;;;;;;;1.40;1.10;;;;;;;;;;5014511;28;20478;-64
2023/03/25 01:40:51;;;;;;;1.33;1.17;;;;;;;;;;5014562;28;20537;-63
2023/03/25 01:43:18;;;;;;;4.40;1.47;;;;;;;;;;5014417;28;20465;-63
2023/03/25 01:45:45;;;;;;;1.70;1.07;;;;;;;;;;5014366;28;20457;-63
2023/03/25 01:48:16;;;;;;;1.70;1.30;;;;;;;;;;5014223;28;20524;-63
2023/03/25 01:50:45;;;;;;;1.67;1.00;;;;;;;;;;5014555;28;20542;-63
2023/03/25 01:53:12;;;;;;;2.90;1.40;;;;;;;;;;5014159;28;20942;-63
2023/03/25 01:55:39;;;;;;;2.63;1.40;;;;;;;;;;5013844;28;20453;-63
2023/03/25 01:58:10;;;;;;;1.20;1.10;;;;;;;;;;5014213;28;20446;-63
2023/03/25 02:00:38;;;;;;;2.20;1.20;;;;;;;;;;5014103;28;20486;-63
2023/03/25 02:03:08;;;;;;;1.87;1.10;;;;;;;;;;5014191;28;20454;-63
2023/03/25 02:05:37;;;;;;;1.80;1.17;;;;;;;;;;5014103;28;20453;-63
2023/03/25 02:08:07;;;;;;;3.80;1.10;;;;;;;;;;5013964;28;20992;-63
2023/03/25 02:10:35;;;;;;;1.37;1.00;;;;;;;;;;5014009;28;20847;-63
2023/03/25 02:13:02;;;;;;;1.20;1.10;;;;;;;;;;5014173;28;20453;-63
2023/03/25 02:15:34;;;;;;;1.50;1.30;;;;;;;;;;5013972;28;20461;-63
2023/03/25 02:18:14;;;;;;;1.30;1.20;;;;;;;;;;5013910;28;20458;-64
2023/03/25 02:20:57;;;;;;;1.47;1.37;;;;;;;;;;5013851;28;20454;-63
2023/03/25 02:23:46;;;;;;;3.20;1.17;;;;;;;;;;5013617;28;20450;-63
2023/03/25 02:26:28;;;;;;;1.50;1.40;;;;;;;;;;5013804;28;20727;-63
2023/03/25 02:28:56;;;;;;;1.50;1.40;;;;;;;;;;5013766;28;20450;-64
2023/03/25 02:31:32;;;;;;;1.80;1.70;;;;;;;;;;5013638;28;20453;-64
2023/03/25 02:34:14;;;;;;;1.50;1.40;;;;;;;;;;5013425;28;20975;-63
2023/03/25 02:36:51;;;;;;;2.10;1.90;;;;;;;;;;5010720;28;20799;-64
2023/03/25 02:39:22;;;;;;;3.93;2.10;;;;;;;;;;5013525;28;20496;-63
2023/03/25 02:41:52;;;;;;;4.20;1.97;;;;;;;;;;5013475;28;20453;-64
2023/03/25 02:44:21;;;;;;;1.50;1.40;;;;;;;;;;5013554;28;20447;-63
2023/03/25 02:46:50;;;;;;;1.73;1.63;;;;;;;;;;5013393;28;20478;-63
2023/03/25 02:49:19;;;;;;;2.20;2.00;;;;;;;;;;5013429;28;20497;-64
2023/03/25 02:51:50;;;;;;;3.43;1.93;;;;;;;;;;5013325;28;20454;-63
2023/03/25 02:54:17;;;;;;;1.60;1.50;;;;;;;;;;5013267;28;20861;-63
2023/03/25 02:56:47;;;;;;;3.87;1.70;;;;;;;;;;5013152;28;20454;-64
2023/03/25 02:59:15;;;;;;;3.00;2.50;;;;;;;;;;5013182;28;20945;-64
2023/03/25 03:01:44;;;;;;;2.37;1.80;;;;;;;;;;5013227;28;20791;-64
2023/03/25 03:04:11;;;;;;;5.27;2.20;;;;;;;;;;5013131;28;20501;-63
2023/03/25 03:06:40;;;;;;;3.13;2.63;;;;;;;;;;5012208;28;20484;-64
2023/03/25 03:09:18;;;;;;;2.57;2.27;;;;;;;;;;5013000;28;20453;-64
2023/03/25 03:11:50;;;;;;;3.90;2.10;;;;;;;;;;5013225;28;20901;-63
2023/03/25 03:14:25;;;;;;;2.40;1.60;;;;;;;;;;5013063;28;20462;-63
2023/03/25 03:16:59;;;;;;;1.53;1.43;;;;;;;;;;5013087;28;20453;-64
2023/03/25 03:19:36;;;;;;;2.00;1.90;;;;;;;;;;5012978;28;20461;-63
2023/03/25 03:22:12;;;;;;;2.57;2.23;;;;;;;;;;5013384;28;20449;-63
2023/03/25 03:24:41;;;;;;;2.00;1.90;;;;;;;;;;5013018;28;20524;-63
2023/03/25 03:27:11;;;;;;;3.43;2.17;;;;;;;;;;5012908;28;20577;-63
2023/03/25 03:29:40;;;;;;;1.90;1.80;;;;;;;;;;5012918;28;20462;-63
2023/03/25 03:32:10;;;;;;;2.87;2.47;;;;;;;;;;5012733;28;20478;-63
2023/03/25 03:34:42;;;;;;;2.13;2.00;;;;;;;;;;5013015;28;20512;-63
2023/03/25 03:37:10;;;;;;;1.70;1.60;;;;;;;;;;5012986;28;20486;-63
2023/03/25 03:39:37;;;;;;;3.67;2.10;;;;;;;;;;5012598;28;20510;-63
2023/03/25 03:42:06;;;;;;;2.40;2.20;;;;;;;;;;5012741;28;20454;-63
2023/03/25 03:44:37;;;;;;;2.77;2.00;;;;;;;;;;5012579;28;20486;-63
2023/03/25 03:47:06;;;;;;;2.43;1.60;;;;;;;;;;5012853;28;20485;-63
2023/03/25 03:49:37;;;;;;;1.80;1.70;;;;;;;;;;5012840;28;20503;-63
2023/03/25 03:52:08;;;;;;;3.97;2.17;;;;;;;;;;5012768;28;20454;-63
2023/03/25 03:54:37;;;;;;;2.80;1.97;;;;;;;;;;5012667;28;20941;-64
2023/03/25 03:57:08;;;;;;;4.07;1.60;;;;;;;;;;5012554;28;20450;-63
2023/03/25 03:59:39;;;;;;;1.80;1.60;;;;;;;;;;5012764;28;20450;-63
2023/03/25 04:02:09;;;;;;;4.17;2.30;;;;;;;;;;5013018;28;20486;-63
2023/03/25 04:04:37;;;;;;;2.17;1.80;;;;;;;;;;5012657;28;20956;-64
2023/03/25 04:07:09;;;;;;;2.37;1.83;;;;;;;;;;5012482;28;20502;-64
2023/03/25 04:09:39;;;;;;;5.27;1.70;;;;;;;;;;5012474;28;20545;-64
2023/03/25 04:12:09;;;;;;;2.10;1.57;;;;;;;;;;5012660;28;20816;-64
2023/03/25 04:14:38;;;;;;;1.53;1.43;;;;;;;;;;5012604;28;20461;-64
2023/03/25 04:17:06;;;;;;;1.97;1.47;;;;;;;;;;5012663;28;20503;-64
2023/03/25 04:19:33;;;;;;;1.63;1.50;;;;;;;;;;5016307;28;20456;-64
2023/03/25 04:22:01;;;;;;;1.57;1.47;;;;;;;;;;5015967;28;20541;-64
2023/03/25 04:24:30;;;;;;;1.47;1.30;;;;;;;;;;5015820;28;20462;-64
2023/03/25 04:26:58;;;;;;;3.40;1.40;;;;;;;;;;5015946;28;20457;-64
2023/03/25 04:29:25;;;;;;;1.43;1.33;;;;;;;;;;5015936;28;20450;-64
2023/03/25 04:31:55;;;;;;;2.30;1.47;;;;;;;;;;5015845;28;20542;-64
2023/03/25 04:34:22;;;;;;;1.20;1.03;;;;;;;;;;5015758;28;20885;-64
2023/03/25 04:36:49;;;;;;;1.40;1.30;;;;;;;;;;5015583;28;20461;-64
2023/03/25 04:39:17;;;;;;;2.03;1.30;;;;;;;;;;5015671;28;20482;-64
2023/03/25 04:41:44;;;;;;;3.37;1.40;;;;;;;;;;5015733;28;20450;-63
2023/03/25 04:44:11;;;;;;;3.20;1.57;;;;;;;;;;5015588;28;20946;-64
2023/03/25 04:46:38;;;;;;;1.60;1.50;;;;;;;;;;5015570;28;20453;-64
2023/03/25 04:49:12;;;;;;;1.90;1.80;;;;;;;;;;5015445;28;20841;-63
2023/03/25 04:51:43;;;;;;;1.50;1.37;;;;;;;;;;5015681;28;20930;-64
2023/03/25 04:54:10;;;;;;;2.77;1.30;;;;;;;;;;5015539;28;20853;-63
2023/03/25 04:56:38;;;;;;;1.30;1.20;;;;;;;;;;5015483;28;20446;-63
2023/03/25 04:59:05;;;;;;;2.50;1.90;;;;;;;;;;5015389;28;20450;-63
2023/03/25 05:01:32;;;;;;;2.03;1.40;;;;;;;;;;5015470;28;20457;-63
2023/03/25 05:04:04;;;;;;;2.63;1.50;;;;;;;;;;5015024;28;20979;-64
2023/03/25 05:06:33;;;;;;;4.90;1.40;;;;;;;;;;5015307;28;20455;-64
2023/03/25 05:09:02;;;;;;;1.83;1.70;;;;;;;;;;5015081;28;20487;-63
2023/03/25 05:11:29;;;;;;;2.73;1.60;;;;;;;;;;5015190;28;20921;-63
2023/03/25 05:13:56;;;;;;;4.70;1.60;;;;;;;;;;5014902;28;20450;-64
2023/03/25 05:16:23;;;;;;;3.83;1.57;;;;;;;;;;5014911;28;20449;-63
2023/03/25 05:18:50;;;;;;;1.60;1.30;;;;;;;;;;5015084;28;20457;-64
2023/03/25 05:21:17;;;;;;;2.67;1.43;;;;;;;;;;5014987;28;20819;-64
2023/03/25 05:23:45;;;;;;;2.67;1.30;;;;;;;;;;5014952;28;20450;-63
2023/03/25 05:26:12;;;;;;;1.90;1.50;;;;;;;;;;5015067;28;20538;-63
2023/03/25 05:28:39;;;;;;;2.57;1.40;;;;;;;;;;5014104;28;20841;-64
2023/03/25 05:31:08;;;;;;;4.93;1.57;;;;;;;;;;5014707;28;20460;-64
2023/03/25 05:33:35;;;;;;;4.37;1.60;;;;;;;;;;5014916;28;20451;-63
2023/03/25 05:36:02;;;;;;;3.17;1.80;;;;;;;;;;5014721;28;20477;-64
2023/03/25 05:38:32;;;;;;;2.07;1.40;;;;;;;;;;5014344;28;21060;-64
2023/03/25 05:41:00;;;;;;;1.50;1.13;;;;;;;;;;5014567;28;20460;-64
2023/03/25 05:43:27;;;;;;;2.60;1.07;;;;;;;;;;5014392;28;20487;-63
2023/03/25 05:45:53;;;;;;;1.73;1.23;;;;;;;;;;5014625;28;20791;-64
2023/03/25 05:48:21;;;;;;;2.13;1.20;;;;;;;;;;5014492;28;20529;-63
2023/03/25 05:50:48;;;;;;;1.57;0.90;;;;;;;;;;5014471;28;20792;-63
2023/03/25 05:53:15;;;;;;;1.50;1.07;;;;;;;;;;5014393;28;20478;-63
2023/03/25 05:55:42;;;;;;;2.50;1.00;;;;;;;;;;5014211;28;20961;-63
2023/03/25 05:58:10;;;;;;;7.40;1.40;;;;;;;;;;5014088;28;20447;-62
2023/03/25 06:00:37;;;;;;;2.33;1.20;;;;;;;;;;5014356;28;20446;-62
2023/03/25 06:03:06;;;;;;;2.73;0.90;;;;;;;;;;5014136;28;20534;-61
2023/03/25 06:05:33;;;;;;;1.23;1.13;;;;;;;;;;5014142;28;20447;-62
2023/03/25 06:08:00;;;;;;;1.40;0.80;;;;;;;;;;5014134;28;20474;-62
2023/03/25 06:10:27;;;;;;;2.90;1.37;;;;;;;;;;5013874;28;20455;-62
2023/03/25 06:12:54;;;;;;;1.30;1.20;;;;;;;;;;5014416;28;20453;-62
2023/03/25 06:15:27;;;;;;;1.27;0.70;;;;;;;;;;5014114;28;20454;-62
2023/03/25 06:17:54;;;;;;;3.80;0.77;;;;;;;;;;5014130;28;20458;-63
2023/03/25 06:20:21;;;;;;;1.77;0.90;;;;;;;;;;5014041;28;20963;-63
2023/03/25 06:22:48;;;;;;;1.67;0.80;;;;;;;;;;5013967;28;20545;-62
2023/03/25 06:25:17;;;;;;;1.30;0.80;;;;;;;;;;5013760;28;20461;-62
2023/03/25 06:27:44;;;;;;;2.67;0.87;;;;;;;;;;5013844;28;20965;-62
2023/03/25 06:30:13;;;;;;;1.30;0.90;;;;;;;;;;5013781;28;20457;-62
2023/03/25 06:32:41;;;;;;;1.53;1.17;;;;;;;;;;5013654;28;20894;-62
2023/03/25 06:35:09;;;;;;;3.03;0.80;;;;;;;;;;5013582;28;20455;-62
2023/03/25 06:37:36;;;;;;;1.93;0.80;;;;;;;;;;5013377;28;20486;-62
2023/03/25 06:40:04;;;;;;;1.53;0.80;;;;;;;;;;5013336;28;20894;-62
2023/03/25 06:42:32;;;;;;;2.37;0.70;;;;;;;;;;5013515;28;20450;-63
2023/03/25 06:45:01;;;;;;;1.20;0.70;;;;;;;;;;5013425;28;20446;-62
2023/03/25 06:47:28;;;;;;;1.70;0.70;;;;;;;;;;5013474;28;20458;-62
2023/03/25 06:49:56;;;;;;;2.10;0.80;;;;;;;;;;5013383;28;20837;-63
2023/03/25 06:52:23;;;;;;;2.10;1.00;;;;;;;;;;5013273;28;20482;-63
2023/03/25 06:54:50;;;;;;;2.47;0.80;;;;;;;;;;5013496;28;20553;-63
2023/03/25 06:57:17;;;;;;;1.20;0.70;;;;;;;;;;5013527;28;20477;-62
2023/03/25 06:59:44;;;;;;;1.60;0.83;;;;;;;;;;5013319;28;20550;-62
2023/03/25 07:02:12;;;;;;;1.93;0.73;;;;;;;;;;5013019;28;20946;-62
2023/03/25 07:04:39;;;;;;;2.40;0.73;;;;;;;;;;5013034;28;20457;-62
2023/03/25 07:07:08;;;;;;;2.63;0.70;;;;;;;;;;5013334;28;20456;-62
2023/03/25 07:09:34;;;;;;;1.80;0.60;;;;;;;;;;5013204;28;20577;-62
2023/03/25 07:12:01;;;;;;;2.40;1.00;;;;;;;;;;5013051;28;20450;-62
2023/03/25 07:14:28;;;;;;;0.67;0.60;;;;;;;;;;5013026;28;20505;-62
2023/03/25 07:16:55;;;;;;;1.80;0.67;;;;;;;;;;5012999;28;20451;-62
2023/03/25 07:19:22;;;;;;;1.83;0.70;;;;;;;;;;5013458;28;20454;-62
2023/03/25 07:21:49;;;;;;;2.20;0.70;;;;;;;;;;5013053;28;20457;-63
2023/03/25 07:24:17;;;;;;;1.53;0.80;;;;;;;;;;5012989;28;20454;-62
2023/03/25 07:26:44;;;;;;;1.73;0.80;;;;;;;;;;5012902;28;20891;-62
2023/03/25 07:29:11;;;;;;;1.10;0.60;;;;;;;;;;5013090;28;20489;-63
2023/03/25 07:31:39;;;;;;;1.90;0.80;;;;;;;;;;5012796;28;20596;-63
2023/03/25 07:34:07;;;;;;;2.73;0.80;;;;;;;;;;5012984;28;20442;-62
2023/03/25 07:36:34;;;;;;;1.27;0.70;;;;;;;;;;5012697;28;21006;-63
2023/03/25 07:39:01;;;;;;;2.10;0.87;;;;;;;;;;5012641;28;20478;-63
2023/03/25 07:41:30;;;;;;;0.90;0.70;;;;;;;;;;5012939;28;20941;-62
2023/03/25 07:43:58;;;;;;;1.90;0.93;;;;;;;;;;5012809;28;20455;-62
2023/03/25 07:46:25;;;;;;;1.70;0.77;;;;;;;;;;5012814;28;20451;-62
2023/03/25 07:48:52;;;;;;;2.17;0.70;;;;;;;;;;5013035;28;20887;-63
2023/03/25 07:51:19;;;;;;;1.00;0.80;;;;;;;;;;5012959;28;20529;-63
2023/03/25 07:53:46;;;;;;;1.63;0.70;;;;;;;;;;5015598;28;20450;-63
2023/03/25 07:56:15;;;;;;;1.40;1.07;;;;;;;;;;5016702;28;20450;-63
2023/03/25 07:58:44;;;;;;;1.53;0.90;;;;;;;;;;5016500;28;20954;-62
2023/03/25 08:01:11;;;;;;;2.70;0.83;;;;;;;;;;5016668;28;20482;-62
2023/03/25 08:03:38;;;;;;;1.57;0.90;;;;;;;;;;5016550;28;20813;-62
2023/03/25 08:06:06;;;;;;;2.63;0.80;;;;;;;;;;5016743;28;20854;-62
2023/03/25 08:08:33;;;;;;;1.30;1.20;;;;;;;;;;5016386;28;20907;-62
2023/03/25 08:11:00;;;;;;;0.80;0.70;;;;;;;;;;5016372;28;20460;-62
2023/03/25 08:13:27;;;;;;;3.83;1.67;;;;;;;;;;5016171;28;20967;-62
2023/03/25 08:15:55;;;;;;;1.87;0.90;;;;;;;;;;5016503;28;20457;-62
2023/03/25 08:18:22;;;;;;;1.40;0.70;;;;;;;;;;5016371;28;20458;-62
2023/03/25 08:20:50;;;;;;;3.23;0.90;;;;;;;;;;5016273;28;20783;-62
2023/03/25 08:23:18;;;;;;;1.63;0.73;;;;;;;;;;5016074;28;20477;-62
2023/03/25 08:25:47;;;;;;;1.40;1.20;;;;;;;;;;5016060;28;20496;-62
2023/03/25 08:28:16;;;;;;;2.70;1.10;;;;;;;;;;5016035;28;20442;-62
2023/03/25 08:30:43;;;;;;;1.10;0.90;;;;;;;;;;5016046;28;20450;-62
2023/03/25 08:33:11;;;;;;;3.17;0.90;;;;;;;;;;5016068;28;20450;-63
2023/03/25 08:35:39;;;;;;;1.17;0.70;;;;;;;;;;5016021;28;20457;-62
2023/03/25 08:38:06;;;;;;;1.83;0.73;;;;;;;;;;5015698;28;20470;-63
2023/03/25 08:40:33;;;;;;;0.90;0.80;;;;;;;;;;5015660;28;20458;-62
2023/03/25 08:43:02;;;;;;;3.47;1.20;;;;;;;;;;5015613;28;20458;-63
2023/03/25 08:45:31;;;;;;;1.50;0.67;;;;;;;;;;5015904;28;20550;-63
2023/03/25 08:47:58;;;;;;;1.20;0.80;;;;;;;;;;5015746;28;20453;-63
2023/03/25 08:50:26;;;;;;;5.63;1.50;;;;;;;;;;5015790;28;20486;-62
2023/03/25 08:52:56;;;;;;;2.73;1.00;;;;;;;;;;5015541;28;20934;-63
2023/03/25 08:55:23;;;;;;;1.40;0.90;;;;;;;;;;5015676;28;20446;-62
2023/03/25 08:57:50;;;;;;;3.30;1.20;;;;;;;;;;5015739;28;20455;-62
2023/03/25 09:00:22;;;;;;;2.27;0.90;;;;;;;;;;5015598;28;20822;-62
2023/03/25 09:02:49;;;;;;;2.13;1.17;;;;;;;;;;5015939;28;20478;-63
2023/03/25 09:05:17;;;;;;;1.43;0.90;;;;;;;;;;5015201;28;20453;-62
2023/03/25 09:07:46;;;;;;;5.13;1.30;;;;;;;;;;5015159;28;20641;-62
2023/03/25 09:10:13;;;;;;;0.90;0.70;;;;;;;;;;5015242;28;20535;-62
2023/03/25 09:12:40;;;;;;;2.90;1.00;;;;;;;;;;5015090;28;20458;-63
2023/03/25 09:15:07;;;;;;;1.67;1.10;;;;;;;;;;5015049;28;20956;-62
2023/03/25 09:17:34;;;;;;;0.80;0.80;;;;;;;;;;5015166;28;20451;-62
2023/03/25 09:20:01;;;;;;;5.10;1.40;;;;;;;;;;5014951;28;20505;-63
2023/03/25 09:22:28;;;;;;;1.83;1.10;;;;;;;;;;5015103;28;20546;-62
2023/03/25 09:24:56;;;;;;;1.20;0.90;;;;;;;;;;5015127;28;20817;-63
2023/03/25 09:27:23;;;;;;;1.23;1.13;;;;;;;;;;5014978;28;21030;-62
2023/03/25 09:29:50;;;;;;;2.00;1.30;;;;;;;;;;5014876;28;20482;-63
2023/03/25 09:32:18;;;;;;;1.53;0.90;;;;;;;;;;5014907;28;20455;-63
2023/03/25 09:34:44;;;;;;;2.57;0.93;;;;;;;;;;5014671;28;20450;-63
2023/03/25 09:37:11;;;;;;;1.77;0.80;;;;;;;;;;5015107;28;20490;-64
2023/03/25 09:39:38;;;;;;;0.90;0.80;;;;;;;;;;5014632;28;20585;-63
2023/03/25 09:42:14;;;;;;;2.23;0.97;;;;;;;;;;5014796;28;20451;-63
2023/03/25 09:44:49;;;;;;;1.73;0.70;;;;;;;;;;5014450;28;20473;-63
2023/03/25 09:47:16;;;;;;;1.17;0.73;;;;;;;;;;5014500;28;20455;-64
2023/03/25 09:49:44;;;;;;;2.90;1.03;;;;;;;;;;5014565;28;20492;-63
2023/03/25 09:52:14;;;;;;;1.63;0.87;;;;;;;;;;5014806;28;20460;-63
2023/03/25 09:54:43;;;;;;;1.70;1.00;;;;;;;;;;5014265;28;20545;-63
2023/03/25 09:57:16;;;;;;;3.73;1.00;;;;;;;;;;5014418;28;20455;-63
2023/03/25 09:59:46;;;;;;;2.50;0.90;;;;;;;;;;5014557;28;20457;-63
2023/03/25 10:02:21;;;;;;;1.23;0.80;;;;;;;;;;5014467;28;20446;-63
2023/03/25 10:04:54;;;;;;;2.23;0.90;;;;;;;;;;5014356;28;20546;-63
2023/03/25 10:07:26;;;;;;;1.40;1.30;;;;;;;;;;5014271;28;20457;-63
2023/03/25 10:09:58;;;;;;;1.60;1.50;;;;;;;;;;5014092;28;20493;-63
2023/03/25 10:12:32;;;;;;;1.00;0.90;;;;;;;;;;5014317;28;20489;-63
2023/03/25 10:15:07;;;;;;;1.17;1.00;;;;;;;;;;5013916;28;20481;-63
2023/03/25 10:17:38;;;;;;;6.17;1.03;;;;;;;;;;5014048;28;20453;-63
2023/03/25 10:20:08;;;;;;;2.37;0.90;;;;;;;;;;5013996;28;20450;-63
2023/03/25 10:22:37;;;;;;;1.40;0.77;;;;;;;;;;5013850;28;20977;-63
2023/03/25 10:25:05;;;;;;;1.10;0.80;;;;;;;;;;5013947;28;20537;-63
2023/03/25 10:27:35;;;;;;;2.37;0.80;;;;;;;;;;5013864;28;20455;-63
2023/03/25 10:30:05;;;;;;;0.90;0.70;;;;;;;;;;5013977;28;20569;-63
2023/03/25 10:32:35;;;;;;;1.10;0.93;;;;;;;;;;5013819;28;20450;-63
2023/03/25 10:35:04;;;;;;;2.70;0.80;;;;;;;;;;5013603;28;20451;-63
2023/03/25 10:37:33;;;;;;;2.27;0.90;;;;;;;;;;5013867;28;20858;-63
2023/03/25 10:40:01;;;;;;;2.77;0.70;;;;;;;;;;5013529;28;20560;-64
2023/03/25 10:42:33;;;;;;;2.40;1.10;;;;;;;;;;5013692;28;20458;-63
2023/03/25 10:45:02;;;;;;;3.30;1.50;;;;;;;;;;5013627;28;20447;-63
2023/03/25 10:47:32;;;;;;;1.80;0.70;;;;;;;;;;5013562;28;20890;-63
2023/03/25 10:49:59;;;;;;;1.50;1.00;;;;;;;;;;5013515;28;20500;-63
2023/03/25 10:52:26;;;;;;;1.37;1.10;;;;;;;;;;5013643;28;20545;-63
2023/03/25 10:54:55;;;;;;;1.30;0.80;;;;;;;;;;5013242;28;20487;-64
2023/03/25 10:57:24;;;;;;;1.17;0.73;;;;;;;;;;5013422;28;20459;-63
2023/03/25 10:59:57;;;;;;;1.90;0.93;;;;;;;;;;5013412;28;20463;-63
2023/03/25 11:02:30;;;;;;;1.43;1.00;;;;;;;;;;5013399;28;20537;-63
2023/03/25 11:04:58;;;;;;;1.13;0.90;;;;;;;;;;5013392;28;20451;-63
2023/03/25 11:07:29;;;;;;;2.77;0.93;;;;;;;;;;5013106;28;20818;-63
2023/03/25 11:10:09;;;;;;;1.83;0.70;;;;;;;;;;5013157;28;20571;-63
2023/03/25 11:12:36;;;;;;;0.77;0.67;;;;;;;;;;5012988;28;20520;-63
2023/03/25 11:15:03;;;;;;;1.17;1.00;;;;;;;;;;5013230;28;20810;-63
2023/03/25 11:17:32;;;;;;;0.80;0.67;;;;;;;;;;5013305;28;20451;-64
2023/03/25 11:20:04;;;;;;;1.30;1.20;;;;;;;;;;5013083;28;20490;-63
2023/03/25 11:22:32;;;;;;;0.90;0.73;;;;;;;;;;5013237;28;20506;-64
2023/03/25 11:25:02;;;;;;;2.00;1.00;;;;;;;;;;5013021;28;20451;-63
2023/03/25 11:27:30;;;;;;;2.70;1.90;;;;;;;;;;5013985;28;20486;-63
2023/03/25 11:29:57;;;;;;;1.53;0.90;;;;;;;;;;5017202;28;20573;-63
2023/03/25 11:32:25;;;;;;;1.30;0.70;;;;;;;;;;5017046;28;20462;-63
2023/03/25 11:34:54;;;;;;;2.13;0.90;;;;;;;;;;5017047;28;20542;-63
2023/03/25 11:37:23;;;;;;;2.40;0.70;;;;;;;;;;5017042;28;20450;-63
2023/03/25 11:39:53;;;;;;;1.07;0.80;;;;;;;;;;5016875;28;20486;-63
2023/03/25 11:42:27;;;;;;;0.77;0.67;;;;;;;;;;5017058;28;20455;-63
2023/03/25 11:44:57;;;;;;;1.20;0.70;;;;;;;;;;5016949;28;20449;-63
2023/03/25 11:47:26;;;;;;;1.27;0.67;;;;;;;;;;5016919;28;20447;-63
2023/03/25 11:49:54;;;;;;;2.40;0.70;;;;;;;;;;5016777;28;20519;-63
2023/03/25 11:52:22;;;;;;;1.17;0.77;;;;;;;;;;5016651;28;20545;-63
2023/03/25 11:54:50;;;;;;;1.07;0.97;;;;;;;;;;5016716;28;20819;-63
2023/03/25 11:57:20;;;;;;;0.80;0.80;;;;;;;;;;5016595;28;20452;-63
2023/03/25 11:59:47;;;;;;;1.20;0.80;;;;;;;;;;5016490;28;20461;-63
2023/03/25 12:02:19;;;;;;;1.60;1.00;;;;;;;;;;5016316;28;20542;-64
2023/03/25 12:04:57;;;;;;;1.43;0.90;;;;;;;;;;5016357;28;20455;-63
2023/03/25 12:07:24;;;;;;;0.73;0.70;;;;;;;;;;5016522;28;20491;-63
2023/03/25 12:09:54;;;;;;;0.77;0.70;;;;;;;;;;5016473;28;20503;-63
2023/03/25 12:12:33;;;;;;;1.00;0.63;;;;;;;;;;5016220;28;20981;-63
2023/03/25 12:15:06;;;;;;;0.70;0.67;;;;;;;;;;5016120;28;20503;-63
2023/03/25 12:17:41;;;;;;;1.27;0.70;;;;;;;;;;5016159;28;20506;-63
2023/03/25 12:20:14;;;;;;;3.57;0.70;;;;;;;;;;5016330;28;20453;-63
2023/03/25 12:22:49;;;;;;;2.10;0.80;;;;;;;;;;5016127;28;20453;-63
2023/03/25 12:25:22;;;;;;;1.37;0.70;;;;;;;;;;5016041;28;20522;-63
2023/03/25 12:28:10;;;;;;;1.80;0.80;;;;;;;;;;5016197;28;20494;-63
2023/03/25 12:30:46;;;;;;;1.10;0.87;;;;;;;;;;5016040;28;20486;-63
2023/03/25 12:33:20;;;;;;;1.10;0.60;;;;;;;;;;5015883;28;20460;-63
2023/03/25 12:35:52;;;;;;;1.50;0.83;;;;;;;;;;5015852;28;20495;-63
2023/03/25 12:38:24;;;;;;;1.33;0.70;;;;;;;;;;5015079;28;20795;-63
2023/03/25 12:41:00;;;;;;;1.37;0.60;;;;;;;;;;5015967;28;20448;-63
2023/03/25 12:43:32;;;;;;;0.73;0.70;;;;;;;;;;5015619;28;20451;-63
2023/03/25 12:46:06;;;;;;;0.83;0.60;;;;;;;;;;5015674;28;20460;-63
2023/03/25 12:48:40;;;;;;;0.70;0.70;;;;;;;;;;5015519;28;20451;-63
2023/03/25 12:51:13;;;;;;;1.20;0.70;;;;;;;;;;5015618;28;20586;-63
2023/03/25 12:53:45;;;;;;;1.30;1.07;;;;;;;;;;5015618;28;20462;-63
2023/03/25 12:56:16;;;;;;;1.27;0.97;;;;;;;;;;5015483;28;20556;-63
2023/03/25 12:58:58;;;;;;;2.40;1.30;;;;;;;;;;5015619;28;20542;-63
2023/03/25 13:01:30;;;;;;;2.00;1.37;;;;;;;;;;5015470;28;20511;-63
2023/03/25 13:04:11;;;;;;;1.63;1.20;;;;;;;;;;5015230;28;20462;-63
2023/03/25 13:06:43;;;;;;;1.30;0.87;;;;;;;;;;5015292;28;20486;-63
2023/03/25 13:09:12;;;;;;;1.43;0.50;;;;;;;;;;5015018;28;20452;-63
2023/03/25 13:11:41;;;;;;;1.07;0.67;;;;;;;;;;5015263;28;20568;-63
2023/03/25 13:14:11;;;;;;;0.90;0.80;;;;;;;;;;5015173;28;20456;-63
2023/03/25 13:16:39;;;;;;;1.73;0.63;;;;;;;;;;5015548;28;20808;-63
2023/03/25 13:19:09;;;;;;;1.47;0.70;;;;;;;;;;5015174;28;21006;-63
2023/03/25 13:21:38;;;;;;;0.67;0.53;;;;;;;;;;5014955;28;20460;-64
2023/03/25 13:24:08;;;;;;;0.87;0.73;;;;;;;;;;5015007;28;20452;-63
2023/03/25 13:26:36;;;;;;;1.53;1.23;;;;;;;;;;5014866;28;20448;-63
2023/03/25 13:29:05;;;;;;;0.80;0.70;;;;;;;;;;5014991;28;20938;-63
2023/03/25 13:31:34;;;;;;;1.00;0.70;;;;;;;;;;5014729;28;20483;-63
2023/03/25 13:34:04;;;;;;;5.80;5.30;;;;;;;;;;5014719;28;20482;-63
2023/03/25 13:36:32;;;;;;;3.93;3.53;;;;;;;;;;5014784;28;20505;-63
2023/03/25 13:39:00;;;;;;;2.60;2.40;;;;;;;;;;5014654;28;20488;-62
2023/03/25 13:41:35;;;;;;;3.20;2.87;;;;;;;;;;5014445;28;20451;-62
2023/03/25 13:44:05;;;;;;;2.63;1.67;;;;;;;;;;5014566;28;20448;-62
2023/03/25 13:46:33;;;;;;;1.20;0.60;;;;;;;;;;5014460;28;20488;-62
2023/03/25 13:49:03;;;;;;;1.73;0.67;;;;;;;;;;5014221;28;20452;-62
2023/03/25 13:51:30;;;;;;;2.60;0.70;;;;;;;;;;5013586;28;20489;-62
2023/03/25 13:53:58;;;;;;;0.60;0.60;;;;;;;;;;5014371;28;20455;-62
2023/03/25 13:56:42;;;;;;;3.03;0.80;;;;;;;;;;5014345;28;20577;-62
2023/03/25 13:59:19;;;;;;;0.60;0.60;;;;;;;;;;5014736;28;20804;-62
2023/03/25 14:01:53;;;;;;;0.70;0.60;;;;;;;;;;5014391;28;20455;-62
2023/03/25 14:04:38;;;;;;;1.93;0.90;;;;;;;;;;5014535;28;20970;-62
2023/03/25 14:07:23;;;;;;;0.60;0.50;;;;;;;;;;5014228;28;20467;-64
2023/03/25 14:09:57;;;;;;;1.83;0.70;;;;;;;;;;5014034;28;20461;-64
2023/03/25 14:12:28;;;;;;;1.63;0.90;;;;;;;;;;5014179;28;20493;-64
2023/03/25 14:14:56;;;;;;;0.70;0.60;;;;;;;;;;5014131;28;21018;-63
2023/03/25 14:17:23;;;;;;;1.27;0.70;;;;;;;;;;5014048;28;20455;-63
2023/03/25 14:19:54;;;;;;;2.20;0.90;;;;;;;;;;5014250;28;20450;-63
2023/03/25 14:22:22;;;;;;;3.00;0.70;;;;;;;;;;5013850;28;20457;-63
2023/03/25 14:24:49;;;;;;;1.53;0.60;;;;;;;;;;5014032;28;20446;-63
2023/03/25 14:27:18;;;;;;;0.90;0.70;;;;;;;;;;5013934;28;20969;-63
2023/03/25 14:29:53;;;;;;;2.20;0.90;;;;;;;;;;5014202;28;20799;-62
2023/03/25 14:32:32;;;;;;;1.23;0.80;;;;;;;;;;5013724;28;20486;-62
2023/03/25 14:35:14;;;;;;;1.00;0.73;;;;;;;;;;5014047;28;20450;-62
2023/03/25 14:37:41;;;;;;;1.60;1.30;;;;;;;;;;5013340;28;20542;-62
2023/03/25 14:40:23;;;;;;;2.90;0.70;;;;;;;;;;5013747;28;20426;-62
2023/03/25 14:42:59;;;;;;;1.80;0.77;;;;;;;;;;5013402;28;20450;-62
2023/03/25 14:45:42;;;;;;;1.10;0.80;;;;;;;;;;5013602;28;20562;-64
2023/03/25 14:48:23;;;;;;;1.57;0.80;;;;;;;;;;5013749;28;20453;-62
2023/03/25 14:50:55;;;;;;;1.40;0.80;;;;;;;;;;5013476;28;20578;-63
2023/03/25 14:53:22;;;;;;;1.10;0.80;;;;;;;;;;5013344;28;20451;-62
2023/03/25 14:55:49;;;;;;;1.47;1.03;;;;;;;;;;5013790;28;20462;-63
2023/03/25 14:58:19;;;;;;;1.23;0.80;;;;;;;;;;5013694;28;20539;-62